Bei Facebook empfehlenBei Twitter postenGoogle plusPinterest

Das Wetter im Erzgebirge am 08.09.2016

Wetter und Klima am 08.09.2016 Holzhau im Erzgebirge (630m ü.NN)
Letzte gemessene Temperatur und Uhrzeit der Messung23:45:00 Uhr12.30 °C
Temperatur (Maximum / Höchstwert) und Uhrzeit der Messung16:45:00 Uhr26.70 °C
Temperatur (Minimum / Tiefstwert) und Uhrzeit der Messung04:00:0010.70 °C
Errechneter Absolutwert der Temperaturschwankungen zwischen Tmin und Tmax des Tages16.00 K
Errechnete Tagesmitteltemperatur17.49792 °C
Gesamt - Niederschlag des Tages (in flüssiger Form)0.00 Liter / m²
Luftdruck (Maximum / Höchstwert) und Zeitpunkt der Messung00:00:00 Uhr1016.60 hPa
Luftdruck (Minimum / Tiefstwert) und Zeitpunkt der Messung19:45:00 Uhr1012.10 hPa
Errechneter Absolutwert der Luftdruckschwankungen des Tages4.50 hPa
Höchste gemessene Windgeschwindigkeit und Uhrzeit der Messung23:45:00 Uhr0.00 km/h
Errechnete Windhäufigkeit in Relation zu den Messwerten des Tages0.00000 %
Niedrigste Windkühle (Windchill) und Zeitpunkt der Messung04:00:00 Uhr10.70 °C
Taupunkt (Maximum / Höchstwert) und Uhrzeit der Messung14:15:00 Uhr17.60 °C
Taupunkt (Minimum / Tiefstwert) und Uhrzeit der Messung04:00:009.60 °C
Anzahl der automatisch eingelesenen Messwerte 96

Detaillierte Wetter- und Klima- Messwerte für den 08.09.2016 in Holzhau im Erzgebirge (630m ü.NN)
ZeitTemperaturLuftdruckRel. LuftfeuchteWindWindrichtungWindchillTaupunktNiederschlag l/m²
23:45:0012.30 °C1012.50 hPa88.00 %10.40 °C 
23:30:0012.40 °C1012.50 hPa87.00 %10.30 °C 
23:15:0012.50 °C1012.30 hPa87.00 %10.40 °C 
23:00:0012.70 °C1012.40 hPa86.00 %10.40 °C 
22:45:0013.00 °C1012.40 hPa86.00 %10.70 °C 
22:30:0013.10 °C1012.30 hPa85.00 %10.60 °C 
22:15:0013.30 °C1012.30 hPa85.00 %10.80 °C 
22:00:0013.30 °C1012.40 hPa84.00 %10.70 °C 
21:45:0013.40 °C1012.30 hPa83.00 %10.60 °C 
21:30:0013.60 °C1012.30 hPa82.00 %10.60 °C 
21:15:0013.80 °C1012.30 hPa81.00 %10.60 °C 
21:00:0013.90 °C1012.40 hPa80.00 %10.50 °C 
20:45:0014.20 °C1012.50 hPa79.00 %10.60 °C 
20:30:0014.60 °C1012.20 hPa77.00 %10.60 °C 
20:15:0015.30 °C1012.20 hPa75.00 %10.90 °C 
20:00:0016.20 °C1012.30 hPa73.00 %11.40 °C 
19:45:0017.20 °C1012.10 hPa71.00 %11.90 °C 
19:30:0018.60 °C1012.10 hPa67.00 %12.40 °C 
19:15:0019.80 °C1012.30 hPa66.00 %13.30 °C 
19:00:0021.30 °C1012.30 hPa62.00 %13.70 °C 
18:45:0022.80 °C1012.50 hPa59.00 %14.40 °C 
18:30:0024.30 °C1012.60 hPa56.00 %15.00 °C 
18:15:0025.10 °C1012.80 hPa53.00 %14.80 °C 
18:00:0025.60 °C1012.80 hPa51.00 %14.70 °C 
17:45:0025.90 °C1013.00 hPa51.00 %15.00 °C 
17:30:0026.10 °C1012.70 hPa52.00 %15.50 °C 
17:15:0026.10 °C1012.80 hPa51.00 %15.20 °C 
17:00:0026.40 °C1012.90 hPa51.00 %15.40 °C 
16:45:0026.70 °C1013.00 hPa52.00 %16.00 °C 
16:30:0026.60 °C1013.00 hPa53.00 %16.20 °C 
16:15:0026.20 °C1013.00 hPa54.00 %16.20 °C 
16:00:0025.90 °C1013.20 hPa53.00 %15.60 °C 
15:45:0025.90 °C1012.90 hPa55.00 %16.20 °C 
15:30:0025.80 °C1013.00 hPa56.00 %16.40 °C 
15:15:0025.50 °C1013.00 hPa57.00 %16.40 °C 
15:00:0025.40 °C1013.00 hPa58.00 %16.50 °C 
14:45:0025.60 °C1013.00 hPa60.00 %17.30 °C 
14:30:0025.20 °C1013.10 hPa62.00 %17.40 °C 
14:15:0025.10 °C1013.00 hPa63.00 %17.60 °C 
14:00:0024.50 °C1013.20 hPa65.00 %17.50 °C 
13:45:0024.30 °C1013.20 hPa66.00 %17.50 °C 
13:30:0023.60 °C1013.10 hPa67.00 %17.10 °C 
13:15:0023.40 °C1013.10 hPa67.00 %16.90 °C 
13:00:0023.00 °C1012.90 hPa68.00 %16.80 °C 
12:45:0022.90 °C1013.10 hPa67.00 %16.40 °C 
12:30:0023.30 °C1013.00 hPa69.00 %17.30 °C 
12:15:0023.00 °C1012.90 hPa70.00 %17.20 °C 
12:00:0022.50 °C1012.90 hPa72.00 %17.20 °C 
11:45:0021.90 °C1012.80 hPa72.00 %16.60 °C 
11:30:0021.80 °C1012.80 hPa74.00 %17.00 °C 
11:15:0021.50 °C1013.00 hPa75.00 %16.90 °C 
11:00:0021.30 °C1013.10 hPa76.00 %16.90 °C 
10:45:0020.90 °C1013.30 hPa80.00 %17.30 °C 
10:30:0020.10 °C1013.30 hPa82.00 %16.90 °C 
10:15:0019.90 °C1013.40 hPa86.00 %17.50 °C 
10:00:0019.30 °C1013.30 hPa90.00 %17.60 °C 
09:45:0018.80 °C1013.40 hPa92.00 %17.50 °C 
09:30:0018.10 °C1013.50 hPa93.00 %17.00 °C 
09:15:0017.60 °C1013.70 hPa94.00 %16.60 °C 
09:00:0017.00 °C1013.80 hPa94.00 %16.00 °C 
08:45:0016.40 °C1013.80 hPa95.00 %15.60 °C 
08:30:0015.90 °C1013.70 hPa95.00 %15.10 °C 
08:15:0015.40 °C1013.70 hPa95.00 %14.60 °C 
08:00:0014.90 °C1013.90 hPa95.00 %14.10 °C 
07:45:0014.30 °C1014.00 hPa95.00 %13.50 °C 
07:30:0013.70 °C1013.80 hPa95.00 %12.90 °C 
07:15:0013.50 °C1013.90 hPa95.00 %12.70 °C 
07:00:0013.20 °C1014.10 hPa95.00 %12.40 °C 
06:45:0013.00 °C1014.10 hPa94.00 %12.10 °C 
06:30:0013.00 °C1014.10 hPa94.00 %12.10 °C 
06:15:0012.80 °C1014.10 hPa94.00 %11.90 °C 
06:00:0012.60 °C1014.10 hPa94.00 %11.70 °C 
05:45:0012.20 °C1014.10 hPa94.00 %11.30 °C 
05:30:0011.60 °C1014.30 hPa94.00 %10.70 °C 
05:15:0010.90 °C1014.50 hPa93.00 %9.80 °C 
05:00:0010.80 °C1014.70 hPa93.00 %9.70 °C 
04:45:0010.90 °C1014.80 hPa93.00 %9.80 °C 
04:30:0010.80 °C1015.00 hPa93.00 %9.70 °C 
04:15:0010.80 °C1015.00 hPa93.00 %9.70 °C 
04:00:0010.70 °C1015.00 hPa93.00 %9.60 °C 
03:45:0010.90 °C1015.10 hPa93.00 %9.80 °C 
03:30:0010.90 °C1015.20 hPa92.00 %9.70 °C 
03:15:0011.30 °C1015.20 hPa92.00 %10.00 °C 
03:00:0011.10 °C1015.20 hPa92.00 %9.90 °C 
02:45:0011.40 °C1015.50 hPa92.00 %10.10 °C 
02:30:0011.90 °C1015.70 hPa92.00 %10.60 °C 
02:15:0012.30 °C1015.60 hPa92.00 %11.00 °C 
02:00:0012.50 °C1015.80 hPa92.00 %11.20 °C 
01:45:0012.70 °C1015.80 hPa91.00 %11.30 °C 
01:30:0012.60 °C1016.00 hPa91.00 %11.20 °C 
01:15:0012.50 °C1016.00 hPa91.00 %11.10 °C 
01:00:0012.50 °C1016.30 hPa91.00 %11.10 °C 
00:45:0012.50 °C1016.10 hPa90.00 %10.90 °C 
00:30:0012.40 °C1016.30 hPa90.00 %10.80 °C 
00:15:0012.60 °C1016.40 hPa90.00 %11.00 °C 
00:00:0012.90 °C1016.60 hPa90.00 %11.30 °C 

Permanenter Link zu dieser Seite: Wetter im Erzgebirge am 08.09.2016
Performance-Info: Die Erstellung der Seite / Statistik(en) / Tabelle(n) erforderte 5 Datenbankserver-Abfrage(n) und dauerte 120 Millisekunden. (Dieser Messwert ist von der Gesamt-Auslastung des Servers abhängig.)
Erzgebirge - Wetter | Erzgebirge - Wetter (Mobilgeräte) | Komplette Klimadatenbank